createdAt,value
2019-02-22T00:01:06.095Z,4.70
2019-02-22T00:03:34.959Z,4.60
2019-02-22T00:06:03.807Z,4.50
2019-02-22T00:08:32.691Z,4.50
2019-02-22T00:11:01.548Z,4.60
2019-02-22T00:13:30.401Z,4.70
2019-02-22T00:15:59.297Z,4.70
2019-02-22T00:18:28.321Z,4.70
2019-02-22T00:20:57.167Z,4.80
2019-02-22T00:23:26.094Z,4.90
2019-02-22T00:25:54.946Z,4.80
2019-02-22T00:28:23.792Z,4.70
2019-02-22T00:30:52.712Z,4.60
2019-02-22T00:33:21.570Z,4.60
2019-02-22T00:35:50.568Z,4.50
2019-02-22T00:38:19.415Z,4.60
2019-02-22T00:40:48.267Z,4.70
2019-02-22T00:43:17.120Z,4.80
2019-02-22T00:45:46.056Z,4.90
2019-02-22T00:48:14.903Z,4.90
2019-02-22T00:50:43.760Z,4.90
2019-02-22T00:53:12.656Z,5.00
2019-02-22T00:55:41.484Z,5.00
2019-02-22T00:58:10.340Z,5.00
2019-02-22T01:00:39.236Z,5.10
2019-02-22T01:03:08.069Z,5.10
2019-02-22T01:05:36.939Z,5.10
2019-02-22T01:08:05.873Z,5.00
2019-02-22T01:10:34.720Z,4.90
2019-02-22T01:13:03.577Z,4.90
2019-02-22T01:15:32.470Z,4.90
2019-02-22T01:18:01.335Z,4.90
2019-02-22T01:20:30.287Z,4.80
2019-02-22T01:22:59.204Z,4.70
2019-02-22T01:25:28.035Z,4.70
2019-02-22T01:27:56.898Z,4.80
2019-02-22T01:30:25.819Z,4.80
2019-02-22T01:32:54.670Z,4.80
2019-02-22T01:35:23.545Z,4.80
2019-02-22T01:37:52.418Z,4.80
2019-02-22T01:40:21.261Z,4.90
2019-02-22T01:42:50.107Z,5.00
2019-02-22T01:45:19.020Z,5.10
2019-02-22T01:47:47.865Z,5.10
2019-02-22T01:50:23.595Z,5.10
2019-02-22T01:52:52.450Z,5.10
2019-02-22T01:55:21.312Z,5.00
2019-02-22T01:57:50.188Z,4.90
2019-02-22T02:02:54.984Z,4.90
2019-02-22T02:05:23.820Z,4.90
2019-02-22T02:07:52.772Z,4.90
2019-02-22T02:10:21.698Z,5.00
2019-02-22T02:12:50.544Z,5.10
2019-02-22T02:15:19.371Z,5.10
2019-02-22T02:17:48.269Z,5.20
2019-02-22T02:20:17.168Z,5.30
2019-02-22T02:22:46.091Z,5.30
2019-02-22T02:25:14.995Z,5.30
2019-02-22T02:27:43.851Z,5.40
2019-02-22T02:30:12.741Z,5.40
2019-02-22T02:32:41.590Z,5.30
2019-02-22T02:35:10.492Z,5.30
2019-02-22T02:37:39.330Z,5.30
2019-02-22T02:40:08.521Z,5.30
2019-02-22T02:42:37.371Z,5.40
2019-02-22T02:45:07.218Z,5.50
2019-02-22T02:47:36.119Z,5.50
2019-02-22T02:50:06.168Z,5.40
2019-02-22T02:52:35.001Z,5.40
2019-02-22T02:55:03.937Z,5.30
2019-02-22T02:57:32.790Z,5.30
2019-02-22T03:00:01.654Z,5.30
2019-02-22T03:02:31.445Z,5.30
2019-02-22T03:05:00.412Z,5.30
2019-02-22T03:07:42.431Z,5.20
2019-02-22T03:10:11.288Z,5.20
2019-02-22T03:12:40.139Z,5.30
2019-02-22T03:15:11.742Z,5.20
2019-02-22T03:17:40.581Z,5.10
2019-02-22T03:20:10.030Z,5.30
2019-02-22T03:22:38.922Z,5.40
2019-02-22T03:25:09.385Z,5.40
2019-02-22T03:27:38.233Z,5.40
2019-02-22T03:30:09.950Z,5.30
2019-02-22T03:32:39.842Z,5.30
2019-02-22T03:35:08.689Z,5.40
2019-02-22T03:37:37.601Z,5.40
2019-02-22T03:40:08.038Z,5.30
2019-02-22T03:42:36.891Z,5.20
2019-02-22T03:45:07.815Z,5.30
2019-02-22T03:47:36.656Z,5.40
2019-02-22T03:50:06.992Z,5.40
2019-02-22T03:52:43.317Z,5.30
2019-02-22T03:55:12.187Z,5.30
2019-02-22T03:57:41.137Z,5.30
2019-02-22T04:00:11.636Z,5.30
2019-02-22T04:02:40.483Z,5.30
2019-02-22T04:05:09.428Z,5.30
2019-02-22T04:07:38.313Z,5.30
2019-02-22T04:10:08.245Z,5.20
2019-02-22T04:12:37.086Z,5.20
2019-02-22T04:15:08.669Z,5.30
2019-02-22T04:17:37.548Z,5.30
2019-02-22T04:20:08.091Z,5.30
2019-02-22T04:22:36.987Z,5.30
2019-02-22T04:25:06.525Z,5.30
2019-02-22T04:27:35.381Z,5.40
2019-02-22T04:30:05.078Z,5.40
2019-02-22T04:32:33.942Z,5.40
2019-02-22T04:35:02.811Z,5.40
2019-02-22T04:37:31.716Z,5.40
2019-02-22T04:40:00.581Z,5.30
2019-02-22T04:42:29.427Z,5.40
2019-02-22T04:44:58.289Z,5.40
2019-02-22T04:47:27.149Z,5.40
2019-02-22T04:49:55.990Z,5.20
2019-02-22T04:52:24.879Z,5.10
2019-02-22T04:54:53.733Z,5.10
2019-02-22T04:57:22.580Z,5.10
2019-02-22T04:59:51.504Z,5.10
2019-02-22T05:02:20.336Z,5.10
2019-02-22T05:04:49.175Z,5.10
2019-02-22T05:07:18.062Z,5.10
2019-02-22T05:09:46.902Z,5.20
2019-02-22T05:12:15.762Z,5.30
2019-02-22T05:14:44.658Z,5.30
2019-02-22T05:17:13.516Z,5.20
2019-02-22T05:19:42.362Z,5.30
2019-02-22T05:22:11.298Z,5.30
2019-02-22T05:24:40.153Z,5.30
2019-02-22T05:27:08.995Z,5.30
2019-02-22T05:29:37.882Z,5.30
2019-02-22T05:32:06.732Z,5.30
2019-02-22T05:34:35.585Z,5.30
2019-02-22T05:37:04.497Z,5.30
2019-02-22T05:39:33.349Z,5.30
2019-02-22T05:42:02.221Z,5.30
2019-02-22T05:44:31.144Z,5.30
2019-02-22T05:47:00.785Z,5.30
2019-02-22T05:49:29.845Z,5.30
2019-02-22T05:51:58.761Z,5.30
2019-02-22T05:54:27.612Z,5.30
2019-02-22T05:56:56.451Z,5.50
2019-02-22T05:59:25.394Z,5.60
2019-02-22T06:01:54.214Z,5.60
2019-02-22T06:04:23.049Z,5.60
2019-02-22T06:06:51.974Z,5.60
2019-02-22T06:09:20.838Z,5.60
2019-02-22T06:11:49.715Z,5.70
2019-02-22T06:14:18.614Z,5.70
2019-02-22T06:16:47.458Z,5.80
2019-02-22T06:19:16.321Z,5.90
2019-02-22T06:21:45.224Z,6.00
2019-02-22T06:24:14.085Z,6.20
2019-02-22T06:26:42.940Z,6.30
2019-02-22T06:29:11.836Z,6.30
2019-02-22T06:31:40.691Z,6.30
2019-02-22T06:34:09.598Z,6.20
2019-02-22T06:36:38.478Z,6.10
2019-02-22T06:39:07.364Z,5.90
2019-02-22T06:41:36.175Z,5.90
2019-02-22T06:44:05.067Z,5.90
2019-02-22T06:46:33.927Z,6.00
2019-02-22T06:49:02.787Z,6.30
2019-02-22T06:51:31.703Z,6.40
2019-02-22T06:54:00.554Z,6.50
2019-02-22T06:56:29.403Z,6.50
2019-02-22T06:58:58.287Z,6.60
2019-02-22T07:01:27.146Z,6.60
2019-02-22T07:03:55.996Z,6.70
2019-02-22T07:06:24.915Z,6.70
2019-02-22T07:08:53.785Z,6.60
2019-02-22T07:11:24.189Z,6.60
2019-02-22T07:13:53.094Z,6.60
2019-02-22T07:16:21.981Z,6.70
2019-02-22T07:18:50.834Z,6.80
2019-02-22T07:21:19.729Z,6.90
2019-02-22T07:23:48.571Z,7.00
2019-02-22T07:26:17.413Z,7.20
2019-02-22T07:28:46.290Z,7.30
2019-02-22T07:31:15.169Z,7.30
2019-02-22T07:33:44.421Z,7.20
2019-02-22T07:36:13.330Z,7.10
2019-02-22T07:38:42.179Z,7.10
2019-02-22T07:41:11.038Z,7.10
2019-02-22T07:43:39.944Z,7.20
2019-02-22T07:46:08.795Z,7.20
2019-02-22T07:48:37.642Z,7.30
2019-02-22T07:51:06.570Z,7.30
2019-02-22T07:53:35.437Z,7.20
2019-02-22T07:56:04.270Z,7.30
2019-02-22T07:58:33.180Z,7.30
2019-02-22T08:01:02.036Z,7.40
2019-02-22T08:03:30.889Z,7.50
2019-02-22T08:05:59.815Z,7.50
2019-02-22T08:08:28.650Z,7.60
2019-02-22T08:10:57.500Z,7.70
2019-02-22T08:13:26.411Z,7.60
2019-02-22T08:15:55.253Z,7.70
2019-02-22T08:18:24.152Z,7.60
2019-02-22T08:20:53.100Z,7.70
2019-02-22T08:23:21.956Z,7.80
2019-02-22T08:25:50.833Z,7.70
2019-02-22T08:28:19.736Z,7.50
2019-02-22T08:30:48.587Z,7.40
2019-02-22T08:33:17.430Z,7.40
2019-02-22T08:35:46.491Z,7.50
2019-02-22T08:38:15.376Z,7.50
2019-02-22T08:40:44.214Z,7.50
2019-02-22T08:43:13.142Z,7.50
2019-02-22T08:45:41.998Z,7.50
2019-02-22T08:48:10.845Z,7.40
2019-02-22T08:50:39.746Z,7.30
2019-02-22T08:53:08.607Z,7.20
2019-02-22T08:55:37.460Z,7.00
2019-02-22T08:58:06.354Z,7.00
2019-02-22T09:00:35.225Z,7.00
2019-02-22T09:03:04.107Z,7.00
2019-02-22T09:05:33.001Z,7.10
2019-02-22T09:08:01.859Z,7.10
2019-02-22T09:10:30.713Z,7.20
2019-02-22T09:12:59.619Z,7.20
2019-02-22T09:15:28.457Z,7.30
2019-02-22T09:17:57.304Z,7.40
2019-02-22T09:20:26.189Z,7.60
2019-02-22T09:22:55.036Z,7.70
2019-02-22T09:25:23.890Z,7.70
2019-02-22T09:27:52.825Z,7.80
2019-02-22T09:30:21.680Z,7.70
2019-02-22T09:32:50.539Z,7.50
2019-02-22T09:35:19.433Z,7.30
2019-02-22T09:37:48.282Z,7.40
2019-02-22T09:40:17.143Z,7.50
2019-02-22T09:42:46.029Z,7.50
2019-02-22T09:45:14.903Z,7.60
2019-02-22T09:47:43.748Z,7.40
2019-02-22T09:50:14.856Z,7.50
2019-02-22T09:52:44.084Z,7.40
2019-02-22T09:55:13.765Z,7.30
2019-02-22T09:57:42.677Z,7.00
2019-02-22T10:00:13.647Z,6.90
2019-02-22T10:02:44.641Z,6.80
2019-02-22T10:05:13.851Z,6.80
2019-02-22T10:07:42.740Z,7.00
2019-02-22T10:10:12.153Z,7.20
2019-02-22T10:12:41.081Z,7.50
2019-02-22T10:15:10.739Z,7.70
2019-02-22T10:17:39.680Z,7.80
2019-02-22T10:20:09.880Z,8.00
2019-02-22T10:22:38.730Z,8.00
2019-02-22T10:25:08.088Z,7.80
2019-02-22T10:27:36.979Z,7.80
2019-02-22T10:30:08.811Z,7.80
2019-02-22T10:32:37.657Z,8.00
2019-02-22T10:35:07.499Z,8.00
2019-02-22T10:37:36.460Z,7.90
2019-02-22T10:40:08.193Z,7.90
2019-02-22T10:42:37.089Z,7.80
2019-02-22T10:45:10.961Z,7.70
2019-02-22T10:47:40.720Z,7.70
2019-02-22T10:50:09.989Z,7.60
2019-02-22T10:52:38.835Z,7.70
2019-02-22T10:55:10.407Z,7.80
2019-02-22T10:57:39.238Z,7.90
2019-02-22T11:00:11.815Z,8.10
2019-02-22T11:02:40.688Z,8.20
2019-02-22T11:05:09.595Z,8.20
2019-02-22T11:07:38.506Z,8.30
2019-02-22T11:10:10.316Z,8.30
2019-02-22T11:12:39.214Z,8.20
2019-02-22T11:15:10.489Z,8.20
2019-02-22T11:17:39.423Z,8.10
2019-02-22T11:20:10.072Z,8.00
2019-02-22T11:22:38.929Z,8.00
2019-02-22T11:25:15.390Z,7.80
2019-02-22T11:27:44.236Z,7.80
2019-02-22T11:30:14.569Z,7.70
2019-02-22T11:32:43.488Z,7.50
2019-02-22T11:35:12.361Z,7.30
2019-02-22T11:37:41.208Z,7.20
2019-02-22T11:40:11.408Z,7.20
2019-02-22T11:42:40.290Z,7.30
2019-02-22T11:45:10.236Z,7.40
2019-02-22T11:47:39.116Z,7.60
2019-02-22T11:50:10.176Z,7.70
2019-02-22T11:52:39.031Z,7.70
2019-02-22T11:55:09.600Z,7.70
2019-02-22T11:57:38.425Z,7.70
2019-02-22T12:00:11.334Z,7.80
2019-02-22T12:02:40.501Z,7.80
2019-02-22T12:05:09.363Z,7.80
2019-02-22T12:07:38.213Z,7.80
2019-02-22T12:10:08.817Z,7.70
2019-02-22T12:12:37.662Z,7.70
2019-02-22T12:15:13.732Z,7.70
2019-02-22T12:17:42.607Z,7.70
2019-02-22T12:20:11.718Z,7.70
2019-02-22T12:22:40.625Z,7.70
2019-02-22T12:25:11.182Z,7.80
2019-02-22T12:27:40.025Z,7.90
2019-02-22T12:30:16.434Z,7.80
2019-02-22T12:32:45.364Z,7.80
2019-02-22T12:35:14.197Z,7.90
2019-02-22T12:37:43.122Z,7.90
2019-02-22T12:40:12.550Z,7.90
2019-02-22T12:42:41.408Z,7.90
2019-02-22T12:45:12.495Z,8.00
2019-02-22T12:47:41.305Z,8.00
2019-02-22T12:50:11.358Z,8.00
2019-02-22T12:52:40.247Z,7.90
2019-02-22T12:55:10.079Z,7.90
2019-02-22T12:57:38.943Z,8.00
2019-02-22T13:00:13.408Z,8.00
2019-02-22T13:02:42.267Z,7.90
2019-02-22T13:05:13.792Z,7.90
2019-02-22T13:07:42.671Z,8.00
2019-02-22T13:10:11.533Z,8.00
2019-02-22T13:12:40.376Z,8.10
2019-02-22T13:15:14.307Z,8.10
2019-02-22T13:17:41.875Z,8.10
2019-02-22T13:20:10.830Z,8.00
2019-02-22T13:22:40.667Z,7.90
2019-02-22T13:25:12.874Z,7.90
2019-02-22T13:27:41.709Z,8.00
2019-02-22T13:30:15.405Z,8.00
2019-02-22T13:32:44.250Z,8.10
2019-02-22T13:35:13.088Z,8.20
2019-02-22T13:37:42.263Z,8.20
2019-02-22T13:40:15.861Z,8.30
2019-02-22T13:42:44.712Z,8.30
2019-02-22T13:45:25.613Z,8.20
2019-02-22T13:47:44.982Z,8.20
2019-02-22T13:50:17.821Z,8.20
2019-02-22T13:52:46.749Z,8.10
2019-02-22T13:55:15.652Z,8.10
2019-02-22T13:57:44.504Z,8.00
2019-02-22T14:00:20.179Z,8.00
2019-02-22T14:02:49.018Z,8.00
2019-02-22T14:05:17.891Z,8.00
2019-02-22T14:07:54.954Z,8.10
2019-02-22T14:10:24.691Z,8.10
2019-02-22T14:12:53.553Z,8.10
2019-02-22T14:15:22.558Z,8.20
2019-02-22T14:17:51.394Z,8.10
2019-02-22T14:20:20.230Z,8.20
2019-02-22T14:22:50.715Z,8.10
2019-02-22T14:25:19.553Z,8.00
2019-02-22T14:27:48.415Z,8.20
2019-02-22T14:30:18.668Z,8.30
2019-02-22T14:32:47.521Z,8.30
2019-02-22T14:35:16.357Z,8.30
2019-02-22T14:37:45.358Z,8.40
2019-02-22T14:40:14.588Z,8.40
2019-02-22T14:42:43.431Z,8.40
2019-02-22T14:45:12.815Z,8.30
2019-02-22T14:47:41.665Z,8.30
2019-02-22T14:50:17.894Z,8.30
2019-02-22T14:52:46.718Z,8.20
2019-02-22T14:55:15.573Z,8.20
2019-02-22T14:57:45.523Z,8.20
2019-02-22T15:00:21.948Z,8.20
2019-02-22T15:02:50.841Z,8.20
2019-02-22T15:05:19.669Z,8.20
2019-02-22T15:07:48.496Z,8.30
2019-02-22T15:10:18.847Z,8.30
2019-02-22T15:12:47.963Z,8.10
2019-02-22T15:15:22.498Z,8.10
2019-02-22T15:17:52.963Z,8.00
2019-02-22T15:20:21.793Z,7.90
2019-02-22T15:22:50.640Z,7.80
2019-02-22T15:25:19.932Z,7.80
2019-02-22T15:27:48.791Z,7.80
2019-02-22T15:30:18.040Z,7.70
2019-02-22T15:32:47.113Z,7.90
2019-02-22T15:35:17.351Z,8.10
2019-02-22T15:37:46.207Z,8.50
2019-02-22T15:40:15.501Z,8.60
2019-02-22T15:42:44.359Z,8.40
2019-02-22T15:45:17.559Z,8.30
2019-02-22T15:47:48.651Z,8.10
2019-02-22T15:50:18.064Z,7.90
2019-02-22T15:52:48.404Z,7.80
2019-02-22T15:55:18.463Z,7.80
2019-02-22T15:57:47.306Z,7.80
2019-02-22T16:00:31.353Z,7.80
2019-02-22T16:03:00.213Z,7.70
2019-02-22T16:05:30.761Z,7.70
2019-02-22T16:07:59.839Z,7.70
2019-02-22T16:10:28.790Z,7.70
2019-02-22T16:12:57.623Z,7.80
2019-02-22T16:15:26.534Z,8.00
2019-02-22T16:17:55.363Z,8.10
2019-02-22T16:20:24.215Z,8.10
2019-02-22T16:22:53.109Z,8.10
2019-02-22T16:25:21.953Z,8.10
2019-02-22T16:27:50.812Z,8.00
2019-02-22T16:30:21.332Z,8.00
2019-02-22T16:32:50.278Z,8.00
2019-02-22T16:35:19.157Z,8.00
2019-02-22T16:37:48.085Z,8.00
2019-02-22T16:40:16.882Z,7.90
2019-02-22T16:42:45.742Z,7.90
2019-02-22T16:45:14.745Z,7.90
2019-02-22T16:47:43.594Z,7.80
2019-02-22T16:50:13.851Z,7.80
2019-02-22T16:52:45.150Z,7.80
2019-02-22T16:55:15.229Z,7.80
2019-02-22T16:57:44.094Z,7.80
2019-02-22T17:00:16.980Z,7.60
2019-02-22T17:02:45.928Z,7.30
2019-02-22T17:05:16.368Z,7.10
2019-02-22T17:07:45.280Z,6.70
2019-02-22T17:10:14.102Z,6.40
2019-02-22T17:12:42.940Z,6.10
2019-02-22T17:15:13.407Z,5.80
2019-02-22T17:17:42.242Z,5.50
2019-02-22T17:20:12.590Z,5.40
2019-02-22T17:22:41.495Z,5.30
2019-02-22T17:25:13.228Z,5.20
2019-02-22T17:27:42.071Z,5.00
2019-02-22T17:30:13.696Z,5.00
2019-02-22T17:32:42.584Z,4.90
2019-02-22T17:35:11.516Z,4.80
2019-02-22T17:37:40.426Z,4.80
2019-02-22T17:40:11.936Z,4.70
2019-02-22T17:42:40.776Z,4.50
2019-02-22T17:45:09.772Z,4.50
2019-02-22T17:47:38.622Z,4.40
2019-02-22T17:50:09.459Z,4.30
2019-02-22T17:52:38.440Z,4.40
2019-02-22T17:55:09.194Z,4.40
2019-02-22T17:57:37.983Z,4.20
2019-02-22T18:00:16.391Z,4.20
2019-02-22T18:02:45.242Z,4.10
2019-02-22T18:05:14.088Z,4.00
2019-02-22T18:07:43.007Z,3.90
2019-02-22T18:10:12.470Z,3.80
2019-02-22T18:12:41.273Z,3.70
2019-02-22T18:15:14.957Z,3.50
2019-02-22T18:17:45.570Z,3.30
2019-02-22T18:20:14.404Z,3.20
2019-02-22T18:22:43.314Z,3.10
2019-02-22T18:25:12.288Z,3.00
2019-02-22T18:27:41.148Z,2.90
2019-02-22T18:30:12.814Z,3.00
2019-02-22T18:32:41.657Z,3.10
2019-02-22T18:35:10.497Z,3.40
2019-02-22T18:37:39.397Z,3.50
2019-02-22T18:40:11.428Z,3.40
2019-02-22T18:42:40.274Z,3.30
2019-02-22T18:45:10.470Z,3.30
2019-02-22T18:47:39.329Z,3.30
2019-02-22T18:50:10.875Z,3.40
2019-02-22T18:52:39.765Z,3.50
2019-02-22T18:55:11.002Z,3.40
2019-02-22T18:57:39.836Z,3.40
2019-02-22T19:00:11.751Z,3.50
2019-02-22T19:02:40.610Z,3.50
2019-02-22T19:05:10.142Z,3.40
2019-02-22T19:07:39.019Z,3.30
2019-02-22T19:10:12.438Z,3.30
2019-02-22T19:12:41.307Z,3.30
2019-02-22T19:15:12.537Z,3.30
2019-02-22T19:17:41.458Z,3.40
2019-02-22T19:20:12.890Z,3.40
2019-02-22T19:22:41.783Z,3.40
2019-02-22T19:25:10.748Z,3.40
2019-02-22T19:27:39.576Z,3.30
2019-02-22T19:30:14.145Z,3.40
2019-02-22T19:32:42.980Z,3.40
2019-02-22T19:35:11.819Z,3.40
2019-02-22T19:37:40.708Z,3.30
2019-02-22T19:40:12.249Z,3.30
2019-02-22T19:42:41.094Z,3.20
2019-02-22T19:45:11.374Z,3.00
2019-02-22T19:47:42.080Z,2.90
2019-02-22T19:50:14.763Z,2.90
2019-02-22T19:52:43.812Z,2.70
2019-02-22T19:55:14.983Z,2.60
2019-02-22T19:57:43.812Z,2.50
2019-02-22T20:00:15.280Z,2.30
2019-02-22T20:02:44.053Z,2.40
2019-02-22T20:05:13.950Z,2.50
2019-02-22T20:07:42.840Z,2.50
2019-02-22T20:10:18.128Z,2.50
2019-02-22T20:12:45.557Z,2.30
2019-02-22T20:15:16.450Z,2.10
2019-02-22T20:17:53.361Z,2.00
2019-02-22T20:20:19.654Z,2.00
2019-02-22T20:22:48.720Z,2.00
2019-02-22T20:25:17.549Z,1.80
2019-02-22T20:27:46.398Z,1.70
2019-02-22T20:30:16.613Z,1.70
2019-02-22T20:32:45.451Z,1.70
2019-02-22T20:35:25.306Z,1.60
2019-02-22T20:37:54.148Z,1.60
2019-02-22T20:40:23.565Z,1.60
2019-02-22T20:42:52.481Z,1.60
2019-02-22T20:45:21.360Z,1.50
2019-02-22T20:47:50.183Z,1.50
2019-02-22T20:50:19.074Z,1.50
2019-02-22T20:52:48.069Z,1.50
2019-02-22T20:55:16.957Z,1.50
2019-02-22T20:57:45.972Z,1.50
2019-02-22T21:00:20.089Z,1.40
2019-02-22T21:02:48.935Z,1.40
2019-02-22T21:05:17.813Z,1.30
2019-02-22T21:07:46.647Z,1.30
2019-02-22T21:10:19.931Z,1.30
2019-02-22T21:12:48.936Z,1.20
2019-02-22T21:15:17.780Z,1.20
2019-02-22T21:17:46.622Z,1.20
2019-02-22T21:20:19.617Z,1.20
2019-02-22T21:22:48.445Z,1.10
2019-02-22T21:25:17.330Z,1.20
2019-02-22T21:27:46.275Z,1.20
2019-02-22T21:30:17.073Z,1.30
2019-02-22T21:32:45.906Z,1.20
2019-02-22T21:35:14.821Z,1.20
2019-02-22T21:37:44.358Z,1.00
2019-02-22T21:40:13.897Z,0.80
2019-02-22T21:42:42.789Z,0.80
2019-02-22T21:45:17.885Z,0.80
2019-02-22T21:47:54.871Z,0.90
2019-02-22T21:50:17.778Z,0.90
2019-02-22T21:52:46.618Z,1.00
2019-02-22T21:55:16.165Z,1.10
2019-02-22T21:57:45.049Z,1.10
2019-02-22T22:00:24.754Z,0.90
2019-02-22T22:02:53.651Z,0.80
2019-02-22T22:05:22.453Z,0.80
2019-02-22T22:07:51.261Z,0.80
2019-02-22T22:10:20.235Z,0.70
2019-02-22T22:12:49.080Z,0.70
2019-02-22T22:15:17.909Z,0.80
2019-02-22T22:17:46.786Z,0.80
2019-02-22T22:20:15.628Z,0.70
2019-02-22T22:22:44.472Z,0.60
2019-02-22T22:25:14.542Z,0.60
2019-02-22T22:27:43.374Z,0.60
2019-02-22T22:30:15.820Z,0.60
2019-02-22T22:32:44.823Z,0.60
2019-02-22T22:35:15.836Z,0.60
2019-02-22T22:37:44.684Z,0.50
2019-02-22T22:40:13.562Z,0.50
2019-02-22T22:42:42.395Z,0.40
2019-02-22T22:45:15.809Z,0.40
2019-02-22T22:47:44.687Z,0.30
2019-02-22T22:50:14.535Z,0.30
2019-02-22T22:52:43.379Z,0.40
2019-02-22T22:55:12.274Z,0.40
2019-02-22T22:57:41.106Z,0.20
2019-02-22T23:00:29.724Z,0.20
2019-02-22T23:02:58.552Z,0.10
2019-02-22T23:05:27.394Z,0.00
2019-02-22T23:07:56.351Z,-0.10
2019-02-22T23:10:25.223Z,-0.10
2019-02-22T23:12:54.063Z,-0.10
2019-02-22T23:15:22.937Z,-0.20
2019-02-22T23:17:51.799Z,-0.30
2019-02-22T23:20:20.631Z,-0.40
2019-02-22T23:22:49.557Z,-0.50
2019-02-22T23:25:18.399Z,-0.60
2019-02-22T23:27:47.256Z,-0.60
2019-02-22T23:30:16.177Z,-0.70
2019-02-22T23:32:45.001Z,-0.80
2019-02-22T23:35:13.909Z,-0.80
2019-02-22T23:37:42.762Z,-1.00
2019-02-22T23:40:11.593Z,-1.00
2019-02-22T23:42:40.440Z,-0.90
2019-02-22T23:45:09.310Z,-0.90
2019-02-22T23:47:38.798Z,-0.90
2019-02-22T23:50:08.549Z,-0.90
2019-02-22T23:52:37.488Z,-0.80
2019-02-22T23:55:06.644Z,-0.70
2019-02-22T23:57:35.471Z,-0.70
